Time;durP1;ratioP1;P1;durP2;ratioP2;P2;SDS_P1;SDS_P2;PMS_P1;PMS_P2;Temp;Humidity;BMP_temperature;BMP_pressure;BME280_temperature;BME280_humidity;BME280_pressure;Samples;Min_cycle;Max_cycle;Signal;HPM_P1;HPM_P2
2022/07/10 00:00:51;;;;;;;5.47;0.80;;;;;;;12.35;100.00;101189.22;5017369;28;20220;-74
2022/07/10 00:03:17;;;;;;;3.77;0.80;;;;;;;12.34;100.00;101187.53;5029300;28;20201;-74
2022/07/10 00:05:45;;;;;;;1.00;0.73;;;;;;;12.24;100.00;101198.22;5013359;28;20456;-74
2022/07/10 00:08:11;;;;;;;1.97;0.50;;;;;;;12.23;100.00;101193.88;5023101;28;20196;-74
2022/07/10 00:10:38;;;;;;;2.27;0.73;;;;;;;12.23;100.00;101193.03;5024793;28;20568;-74
2022/07/10 00:13:04;;;;;;;2.90;0.80;;;;;;;12.22;100.00;101193.91;5029068;28;20207;-74
2022/07/10 00:15:32;;;;;;;3.70;0.80;;;;;;;12.19;100.00;101189.63;5029197;28;20210;-74
2022/07/10 00:17:58;;;;;;;0.97;0.87;;;;;;;12.22;100.00;101199.13;5012421;28;20220;-74
2022/07/10 00:20:24;;;;;;;3.23;0.90;;;;;;;12.24;100.00;101194.72;5027693;28;20566;-74
2022/07/10 00:22:52;;;;;;;1.77;0.90;;;;;;;12.27;100.00;101197.28;5024121;28;20279;-74
2022/07/10 00:25:19;;;;;;;1.20;0.77;;;;;;;12.32;100.00;101195.41;5026480;28;20226;-74
2022/07/10 00:27:45;;;;;;;1.67;0.80;;;;;;;12.37;100.00;101197.94;5004205;28;20197;-74
2022/07/10 00:30:12;;;;;;;1.70;0.70;;;;;;;12.37;100.00;101197.94;5028787;28;20202;-74
2022/07/10 00:32:39;;;;;;;0.67;0.50;;;;;;;12.35;100.00;101189.22;5024691;28;20219;-74
2022/07/10 00:35:06;;;;;;;1.10;0.80;;;;;;;12.39;100.00;101199.59;5026978;28;20215;-75
2022/07/10 00:37:34;;;;;;;2.27;0.90;;;;;;;12.43;100.00;101197.75;5004787;28;20715;-74
2022/07/10 00:40:04;;;;;;;1.07;0.80;;;;;;;12.45;100.00;101198.56;5016776;28;20826;-74
2022/07/10 00:42:31;;;;;;;2.33;0.60;;;;;;;12.42;100.00;101198.69;5027312;28;20249;-74
2022/07/10 00:44:57;;;;;;;0.60;0.60;;;;;;;12.45;100.00;101193.34;5025102;28;20443;-74
2022/07/10 00:47:23;;;;;;;0.83;0.70;;;;;;;12.44;100.00;101189.88;5025588;28;20194;-74
2022/07/10 00:49:50;;;;;;;1.10;0.80;;;;;;;12.48;100.00;101196.75;5029717;28;20204;-74
2022/07/10 00:52:18;;;;;;;2.10;0.83;;;;;;;12.47;100.00;101197.66;5029352;28;20223;-74
2022/07/10 00:54:46;;;;;;;0.97;0.67;;;;;;;12.48;100.00;101191.50;5020153;28;20534;-74
2022/07/10 00:57:15;;;;;;;2.80;0.80;;;;;;;12.50;100.00;101192.34;5020475;28;20231;-74
2022/07/10 00:59:42;;;;;;;2.00;0.87;;;;;;;12.48;100.00;101193.28;5009678;28;20253;-74
2022/07/10 01:02:10;;;;;;;1.60;0.90;;;;;;;12.49;100.00;101195.84;5023136;28;20643;-74
2022/07/10 01:04:36;;;;;;;0.70;0.70;;;;;;;12.50;100.00;101184.50;5021691;28;20714;-74
2022/07/10 01:07:03;;;;;;;4.60;1.07;;;;;;;12.54;100.00;101184.41;5019642;28;20213;-74
2022/07/10 01:09:30;;;;;;;2.47;0.77;;;;;;;12.48;100.00;101180.19;5017320;28;20212;-74
2022/07/10 01:11:57;;;;;;;0.87;0.73;;;;;;;12.48;100.00;101183.66;5014430;28;20215;-74
2022/07/10 01:14:25;;;;;;;1.30;0.80;;;;;;;12.52;100.00;101181.81;5013130;28;20689;-74
2022/07/10 01:16:53;;;;;;;3.87;0.83;;;;;;;12.45;100.00;101175.03;5022577;28;20365;-74
2022/07/10 01:19:19;;;;;;;2.30;0.70;;;;;;;12.40;100.00;101167.31;5023480;28;20727;-74
2022/07/10 01:21:47;;;;;;;1.90;1.07;;;;;;;12.38;100.00;101176.09;5016296;28;20227;-74
2022/07/10 01:24:13;;;;;;;2.20;0.80;;;;;;;12.37;100.00;101169.16;5023770;28;20227;-74
2022/07/10 01:26:42;;;;;;;0.80;0.80;;;;;;;12.38;100.00;101176.94;5016028;28;20204;-74
2022/07/10 01:29:11;;;;;;;1.40;0.60;;;;;;;12.38;100.00;101170.88;5017461;28;20668;-74
2022/07/10 01:31:38;;;;;;;2.57;0.90;;;;;;;12.31;100.00;101173.66;5022031;28;20635;-74
2022/07/10 01:34:07;;;;;;;2.10;0.80;;;;;;;12.29;100.00;101172.81;5006180;28;20211;-74
2022/07/10 01:36:34;;;;;;;3.23;0.80;;;;;;;12.30;100.00;101168.44;5027209;28;20286;-72
2022/07/10 01:39:02;;;;;;;0.97;0.80;;;;;;;12.34;100.00;101171.84;5010389;28;20224;-72
2022/07/10 01:41:28;;;;;;;0.63;0.63;;;;;;;12.35;100.00;101173.53;5021507;28;20231;-72
2022/07/10 01:43:55;;;;;;;0.80;0.80;;;;;;;12.30;100.00;101171.91;5028712;28;20545;-72
2022/07/10 01:46:21;;;;;;;1.67;0.77;;;;;;;12.35;100.00;101171.81;5023551;28;20573;-72
2022/07/10 01:48:48;;;;;;;0.80;0.67;;;;;;;12.34;100.00;101172.69;5028144;28;20193;-73
2022/07/10 01:51:14;;;;;;;1.70;0.90;;;;;;;12.36;100.00;101172.66;5016282;28;20317;-72
2022/07/10 01:53:41;;;;;;;2.30;0.70;;;;;;;12.31;100.00;101172.75;5009562;28;20215;-72
2022/07/10 01:56:10;;;;;;;5.70;0.80;;;;;;;12.33;100.00;101173.63;5007027;28;20207;-72
2022/07/10 01:58:37;;;;;;;1.27;0.77;;;;;;;12.34;100.00;101172.69;4994073;28;20232;-72
2022/07/10 02:01:05;;;;;;;3.90;0.97;;;;;;;12.30;100.00;101168.44;5013953;28;20225;-72
2022/07/10 02:06:15;;;;;;;1.13;0.50;;;;;;;12.39;100.00;101164.75;5015428;28;20207;-73
2022/07/10 02:08:42;;;;;;;4.47;0.90;;;;;;;12.31;100.00;101163.19;5025044;28;20194;-72
2022/07/10 02:11:12;;;;;;;2.60;0.90;;;;;;;12.28;100.00;101162.41;5024702;28;20226;-72
2022/07/10 02:13:38;;;;;;;1.33;0.60;;;;;;;12.32;100.00;101157.03;5017601;28;20199;-72
2022/07/10 02:16:05;;;;;;;1.40;0.60;;;;;;;12.34;100.00;101150.94;5020494;28;20207;-72
2022/07/10 02:18:32;;;;;;;1.80;0.77;;;;;;;12.28;100.00;101146.72;5006127;28;20215;-72
2022/07/10 02:20:58;;;;;;;1.23;0.80;;;;;;;12.30;100.00;101137.91;5023831;28;20756;-72
2022/07/10 02:23:25;;;;;;;2.30;0.90;;;;;;;12.29;100.00;101141.44;5005198;28;20210;-72
2022/07/10 02:25:51;;;;;;;1.13;0.80;;;;;;;12.27;100.00;101145.84;5011318;28;20208;-72
2022/07/10 02:28:19;;;;;;;2.60;1.03;;;;;;;12.23;100.00;101146.81;5022108;28;20194;-72
2022/07/10 02:30:45;;;;;;;2.30;0.80;;;;;;;12.26;100.00;101141.53;5031632;28;20221;-72
2022/07/10 02:33:11;;;;;;;0.60;0.50;;;;;;;12.30;100.00;101144.91;5030568;28;20200;-72
2022/07/10 02:35:38;;;;;;;1.27;0.60;;;;;;;12.28;100.00;101144.94;5031420;28;20207;-72
2022/07/10 02:38:04;;;;;;;0.57;0.53;;;;;;;12.23;100.00;101144.22;5021423;28;20217;-72
2022/07/10 02:40:30;;;;;;;1.73;0.53;;;;;;;12.28;100.00;101141.50;5029886;28;20195;-73
2022/07/10 02:42:57;;;;;;;1.33;0.60;;;;;;;12.23;100.00;101141.59;5021382;28;20232;-73
2022/07/10 02:45:25;;;;;;;1.53;0.90;;;;;;;12.20;100.00;101141.66;5029755;28;20202;-73
2022/07/10 02:47:51;;;;;;;4.57;0.87;;;;;;;12.20;100.00;101151.25;5021057;28;20197;-73
2022/07/10 02:50:17;;;;;;;1.60;0.70;;;;;;;12.24;100.00;101137.22;5023905;28;20204;-72
2022/07/10 02:52:44;;;;;;;0.50;0.50;;;;;;;12.25;100.00;101146.78;5017033;28;20245;-72
2022/07/10 02:55:10;;;;;;;1.47;0.90;;;;;;;12.20;100.00;101132.97;5028577;28;20202;-72
2022/07/10 02:57:36;;;;;;;2.77;0.97;;;;;;;12.17;100.00;101138.25;5028459;28;20227;-72
2022/07/10 03:00:04;;;;;;;2.47;0.83;;;;;;;12.17;100.00;101135.66;5020582;28;20200;-72
2022/07/10 03:02:31;;;;;;;0.60;0.60;;;;;;;12.20;100.00;101132.97;5023862;28;20231;-72
2022/07/10 03:04:58;;;;;;;2.97;0.87;;;;;;;12.16;100.00;101126.94;5016225;28;20203;-72
2022/07/10 03:07:24;;;;;;;1.23;0.97;;;;;;;12.18;100.00;101126.91;5029669;28;20211;-72
2022/07/10 03:09:51;;;;;;;1.90;0.60;;;;;;;12.17;100.00;101123.47;5021646;28;20199;-72
2022/07/10 03:12:17;;;;;;;0.60;0.50;;;;;;;12.21;100.00;101125.09;5029086;28;20228;-72
2022/07/10 03:14:44;;;;;;;1.57;0.90;;;;;;;12.18;100.00;101125.16;5008471;28;20284;-74
2022/07/10 03:17:10;;;;;;;0.60;0.60;;;;;;;12.20;100.00;101119.91;5031565;28;20214;-74
2022/07/10 03:19:38;;;;;;;0.83;0.53;;;;;;;12.18;100.00;101122.53;5030971;28;20215;-74
2022/07/10 03:22:05;;;;;;;1.77;0.80;;;;;;;12.23;100.00;101120.69;5025223;28;20321;-74
2022/07/10 03:24:31;;;;;;;0.80;0.60;;;;;;;12.20;100.00;101110.28;5022480;28;20295;-74
2022/07/10 03:26:58;;;;;;;3.07;0.80;;;;;;;12.20;100.00;101118.13;5022116;28;20202;-74
2022/07/10 03:29:24;;;;;;;3.90;0.80;;;;;;;12.21;100.00;101108.56;5026687;28;20239;-74
2022/07/10 03:31:51;;;;;;;1.77;0.50;;;;;;;12.18;100.00;101112.09;5009608;28;20700;-74
2022/07/10 03:34:18;;;;;;;0.63;0.63;;;;;;;12.19;100.00;101118.16;5011805;28;20294;-74
2022/07/10 03:36:45;;;;;;;2.30;0.77;;;;;;;12.19;100.00;101116.44;5021385;28;20205;-74
2022/07/10 03:39:12;;;;;;;1.70;0.60;;;;;;;12.18;100.00;101114.69;5028385;28;20213;-74
2022/07/10 03:41:38;;;;;;;1.27;0.63;;;;;;;12.20;100.00;101119.91;5042532;23;20237;-76
2022/07/10 03:44:05;;;;;;;1.10;0.60;;;;;;;12.20;100.00;101112.06;5042845;28;20683;-76
2022/07/10 03:46:32;;;;;;;1.50;0.80;;;;;;;12.21;100.00;101114.63;5042094;28;20230;-76
2022/07/10 03:48:58;;;;;;;1.10;0.60;;;;;;;12.26;100.00;101122.34;5041672;28;20727;-76
2022/07/10 03:51:25;;;;;;;1.97;0.77;;;;;;;12.27;100.00;101126.69;5041554;28;20211;-75
2022/07/10 03:53:52;;;;;;;0.50;0.50;;;;;;;12.28;100.00;101128.41;5043217;28;20208;-77
2022/07/10 03:58:59;;;;;;;0.87;0.40;;;;;;;12.29;100.00;101124.88;5025972;28;20236;-74
2022/07/10 04:01:25;;;;;;;0.90;0.57;;;;;;;12.34;100.00;101125.63;5032218;28;20224;-74
2022/07/10 04:03:51;;;;;;;1.93;0.70;;;;;;;12.34;100.00;101124.78;5023479;28;20214;-74
2022/07/10 04:06:18;;;;;;;0.77;0.43;;;;;;;12.32;100.00;101122.19;5027857;28;20210;-74
2022/07/10 04:08:44;;;;;;;0.40;0.40;;;;;;;12.36;100.00;101122.97;5023316;28;20202;-74
2022/07/10 04:11:12;;;;;;;0.63;0.40;;;;;;;12.37;100.00;101119.47;5021652;28;20206;-76
2022/07/10 04:13:38;;;;;;;0.50;0.50;;;;;;;12.41;100.00;101123.72;5027237;28;20195;-75
2022/07/10 04:16:05;;;;;;;1.60;0.50;;;;;;;12.36;100.00;101122.97;5026117;28;20222;-74
2022/07/10 04:18:32;;;;;;;0.73;0.43;;;;;;;12.41;100.00;101127.19;5027046;28;20227;-76
2022/07/10 04:20:58;;;;;;;1.47;0.50;;;;;;;12.36;100.00;101123.81;5027845;28;20211;-74
2022/07/10 04:23:24;;;;;;;0.67;0.30;;;;;;;12.38;100.00;101122.03;5027018;28;20234;-74
2022/07/10 04:25:51;;;;;;;1.33;0.40;;;;;;;12.42;100.00;101112.38;5027288;28;20208;-74
2022/07/10 04:28:18;;;;;;;0.40;0.40;;;;;;;12.43;100.00;101109.69;5026466;28;20206;-74
2022/07/10 04:30:45;;;;;;;3.40;0.67;;;;;;;12.46;100.00;101103.53;5027102;28;20206;-75
2022/07/10 04:33:11;;;;;;;0.50;0.40;;;;;;;12.48;100.00;101109.59;5026988;28;20235;-73
2022/07/10 04:35:39;;;;;;;0.70;0.50;;;;;;;12.50;100.00;101111.28;5026690;28;20210;-74
2022/07/10 04:38:05;;;;;;;2.43;0.70;;;;;;;12.50;100.00;101113.91;5021389;28;20209;-74
2022/07/10 04:40:31;;;;;;;0.50;0.50;;;;;;;12.53;100.00;101110.31;5027009;28;20208;-74
2022/07/10 04:42:58;;;;;;;3.60;0.67;;;;;;;12.52;100.00;101108.59;5026489;28;20232;-74
2022/07/10 04:45:26;;;;;;;2.00;0.50;;;;;;;12.56;100.00;101114.59;5027033;28;20818;-73
2022/07/10 04:47:52;;;;;;;1.20;0.50;;;;;;;12.60;100.00;101109.25;5026067;28;20214;-73
2022/07/10 04:50:19;;;;;;;2.03;0.73;;;;;;;12.66;100.00;101105.63;5026852;28;20257;-74
2022/07/10 04:52:45;;;;;;;1.70;0.70;;;;;;;12.80;100.00;101107.84;5025670;28;20231;-73
2022/07/10 04:55:12;;;;;;;0.70;0.40;;;;;;;12.82;99.11;101106.94;5021263;28;20218;-74
2022/07/10 04:57:38;;;;;;;2.43;0.77;;;;;;;12.88;98.37;101106.75;5021105;28;20212;-73
2022/07/10 05:00:06;;;;;;;0.53;0.40;;;;;;;12.97;98.82;101103.00;5026472;28;20690;-74
2022/07/10 05:02:34;;;;;;;2.03;0.40;;;;;;;13.00;97.19;101107.31;5024902;28;20223;-74
2022/07/10 05:05:00;;;;;;;0.40;0.40;;;;;;;13.02;97.59;101106.34;5022954;28;20203;-74
2022/07/10 05:07:27;;;;;;;0.70;0.40;;;;;;;13.04;97.19;101099.31;5025936;28;20206;-73
2022/07/10 05:09:53;;;;;;;0.63;0.50;;;;;;;13.07;97.99;101099.22;5026998;28;20206;-73
2022/07/10 05:12:19;;;;;;;2.10;0.60;;;;;;;13.11;97.98;101100.00;5025037;28;20237;-73
2022/07/10 05:14:46;;;;;;;0.47;0.40;;;;;;;13.31;97.05;101103.78;5023723;28;20206;-73
2022/07/10 05:17:12;;;;;;;0.40;0.40;;;;;;;13.51;93.46;101109.31;5024262;28;20216;-73
2022/07/10 05:19:40;;;;;;;2.20;0.40;;;;;;;13.70;93.88;101107.00;5025798;28;20225;-75
2022/07/10 05:22:07;;;;;;;2.43;0.43;;;;;;;13.73;91.97;101108.66;5025567;28;20234;-73
2022/07/10 05:24:33;;;;;;;0.33;0.33;;;;;;;13.61;92.48;101120.34;5026094;28;20208;-73
2022/07/10 05:27:00;;;;;;;0.60;0.60;;;;;;;13.63;92.63;101113.31;5025734;28;20208;-72
2022/07/10 05:29:26;;;;;;;1.40;0.53;;;;;;;13.77;92.66;101118.13;5025469;28;20206;-73
2022/07/10 05:31:52;;;;;;;0.30;0.30;;;;;;;13.81;93.45;101125.84;5025025;28;20706;-74
2022/07/10 05:34:19;;;;;;;0.73;0.40;;;;;;;13.79;92.88;101122.41;5025156;28;20208;-73
2022/07/10 05:36:46;;;;;;;0.60;0.30;;;;;;;13.60;92.13;101124.75;5025996;28;20588;-74
2022/07/10 05:39:13;;;;;;;0.30;0.30;;;;;;;13.59;93.13;101122.16;5026983;28;20682;-73
2022/07/10 05:41:39;;;;;;;0.43;0.40;;;;;;;13.89;92.75;101116.88;5024735;28;20211;-72
2022/07/10 05:44:05;;;;;;;0.63;0.37;;;;;;;14.02;90.95;101126.06;5025960;28;20208;-74
2022/07/10 05:46:32;;;;;;;3.00;0.60;;;;;;;14.07;89.50;101123.28;5025098;28;20219;-75
2022/07/10 05:48:58;;;;;;;1.03;0.47;;;;;;;14.07;91.54;101120.66;5024227;28;20668;-74
2022/07/10 05:51:24;;;;;;;0.40;0.40;;;;;;;14.20;90.17;101125.44;5025282;28;20699;-73
2022/07/10 05:53:52;;;;;;;1.40;0.50;;;;;;;14.19;89.62;101134.25;5024861;28;20211;-73
2022/07/10 05:56:18;;;;;;;0.40;0.40;;;;;;;14.22;88.10;101143.75;5024525;28;20211;-73
2022/07/10 05:58:45;;;;;;;0.43;0.40;;;;;;;14.20;90.23;101138.56;5028944;28;20219;-73
2022/07/10 06:01:12;;;;;;;0.30;0.30;;;;;;;14.36;89.30;101138.06;5028905;28;20683;-73
2022/07/10 06:03:38;;;;;;;1.50;0.40;;;;;;;14.56;87.84;101134.75;5026724;28;20204;-74
2022/07/10 06:06:05;;;;;;;2.63;0.70;;;;;;;14.52;88.39;101139.25;5026081;28;20212;-75
2022/07/10 06:08:31;;;;;;;0.40;0.40;;;;;;;14.43;87.33;101128.22;5026123;28;20196;-74
2022/07/10 06:10:59;;;;;;;1.03;0.40;;;;;;;14.55;86.87;101139.13;5029478;28;20219;-73
2022/07/10 06:13:25;;;;;;;0.47;0.43;;;;;;;14.64;85.39;101142.41;5029461;28;20568;-74
2022/07/10 06:15:51;;;;;;;0.50;0.50;;;;;;;14.70;87.01;101134.28;5027682;28;20204;-74
2022/07/10 06:18:18;;;;;;;1.40;0.50;;;;;;;14.59;86.85;101137.31;5029049;28;20211;-73
2022/07/10 06:20:44;;;;;;;0.83;0.50;;;;;;;14.57;86.49;101139.94;5028579;28;20226;-73
2022/07/10 06:23:10;;;;;;;1.20;0.50;;;;;;;14.65;86.39;101137.09;5028567;28;20239;-73
2022/07/10 06:25:37;;;;;;;0.70;0.60;;;;;;;14.71;86.12;101144.75;5025448;28;20602;-73
2022/07/10 06:28:04;;;;;;;1.60;0.50;;;;;;;14.89;87.23;101143.22;5031087;28;20216;-74
2022/07/10 06:30:31;;;;;;;0.70;0.70;;;;;;;15.03;87.27;101141.88;5029245;28;20190;-73
2022/07/10 06:32:57;;;;;;;0.53;0.40;;;;;;;14.86;84.60;101140.75;5027033;28;20226;-74
2022/07/10 06:35:23;;;;;;;0.57;0.43;;;;;;;14.96;86.82;101143.88;5027829;28;20215;-74
2022/07/10 06:37:51;;;;;;;1.37;0.60;;;;;;;15.00;85.23;101150.72;5029895;28;20586;-72
2022/07/10 06:40:19;;;;;;;0.37;0.37;;;;;;;14.95;84.82;101150.91;5027090;28;20768;-72
2022/07/10 06:42:46;;;;;;;0.70;0.40;;;;;;;14.68;84.94;101138.75;5030566;28;20231;-74
2022/07/10 06:45:14;;;;;;;2.57;0.57;;;;;;;14.80;84.48;101133.06;5026852;28;20699;-72
2022/07/10 06:47:58;;;;;;;2.23;0.70;;;;;;;14.79;84.33;101131.34;5028597;28;20204;-73
2022/07/10 06:50:26;;;;;;;2.57;0.60;;;;;;;14.89;85.68;101135.34;5028364;28;20212;-72
2022/07/10 06:52:53;;;;;;;2.10;0.63;;;;;;;15.02;87.82;101127.03;5028029;28;20317;-72
2022/07/10 06:55:21;;;;;;;5.90;0.73;;;;;;;15.10;85.44;101132.88;5027621;28;20216;-73
2022/07/10 06:57:47;;;;;;;0.47;0.43;;;;;;;14.96;83.31;101136.00;5023693;28;20218;-72
2022/07/10 07:00:16;;;;;;;2.30;0.60;;;;;;;14.98;85.07;101131.53;5028392;28;20230;-72
2022/07/10 07:02:43;;;;;;;0.73;0.70;;;;;;;15.02;83.56;101135.78;5026449;28;20270;-73
2022/07/10 07:05:10;;;;;;;1.47;0.80;;;;;;;15.06;83.69;101134.75;5028448;28;20213;-73
2022/07/10 07:07:37;;;;;;;1.17;0.80;;;;;;;15.34;84.93;101139.84;5027893;28;20215;-74
2022/07/10 07:10:04;;;;;;;0.60;0.60;;;;;;;15.48;82.25;101144.56;5023715;28;20545;-73
2022/07/10 07:12:31;;;;;;;1.43;0.50;;;;;;;15.65;83.27;101146.53;5023073;28;20216;-73
2022/07/10 07:14:57;;;;;;;1.90;0.43;;;;;;;15.61;82.20;101146.72;5028359;28;20207;-74
2022/07/10 07:17:25;;;;;;;1.00;0.60;;;;;;;15.70;81.17;101149.81;5022406;28;20211;-73
2022/07/10 07:25:22;;;;;;;1.40;0.43;;;;;;;15.73;81.39;101138.34;5025418;28;20286;-73
2022/07/10 07:27:49;;;;;;;1.33;0.60;;;;;;;15.69;79.96;101145.50;5029720;28;20200;-73
2022/07/10 07:30:16;;;;;;;1.70;0.50;;;;;;;15.77;80.54;101149.63;5026549;28;20718;-73
2022/07/10 07:32:45;;;;;;;1.83;0.60;;;;;;;15.85;80.11;101148.41;5024324;28;20352;-73
2022/07/10 07:35:13;;;;;;;0.30;0.30;;;;;;;15.70;78.22;101146.34;5023773;28;20204;-74
2022/07/10 07:37:41;;;;;;;2.23;0.57;;;;;;;15.68;80.28;101148.19;5023328;28;20208;-74
2022/07/10 07:40:09;;;;;;;0.30;0.30;;;;;;;15.70;78.40;101162.97;5021469;28;20583;-74
2022/07/10 07:42:36;;;;;;;1.17;0.40;;;;;;;15.74;79.40;101152.34;5023585;28;20224;-73
2022/07/10 07:45:03;;;;;;;2.57;0.93;;;;;;;15.88;77.93;101150.03;5020823;28;20715;-74
2022/07/10 07:47:30;;;;;;;1.20;0.53;;;;;;;16.11;79.23;101143.00;5023087;28;20636;-74
2022/07/10 07:50:02;;;;;;;1.83;0.70;;;;;;;16.04;76.96;101150.28;5024964;28;20200;-74
2022/07/10 07:52:31;;;;;;;1.30;0.63;;;;;;;16.00;77.07;101146.09;5024951;28;20301;-75
2022/07/10 07:54:57;;;;;;;1.10;0.90;;;;;;;16.01;77.51;101140.75;5025336;28;20203;-73
2022/07/10 07:57:23;;;;;;;2.50;0.60;;;;;;;16.05;77.38;101147.59;5023263;28;20239;-73
2022/07/10 07:59:50;;;;;;;1.60;0.70;;;;;;;15.99;78.06;101144.34;5025817;28;20208;-73
2022/07/10 08:02:16;;;;;;;1.63;0.47;;;;;;;15.82;75.01;101147.69;5026580;28;20236;-73
2022/07/10 08:04:43;;;;;;;1.20;0.60;;;;;;;15.86;76.13;101154.53;5023680;28;20238;-75
2022/07/10 08:07:10;;;;;;;0.50;0.50;;;;;;;16.01;77.40;101135.50;5022655;28;20211;-73
2022/07/10 08:09:37;;;;;;;2.00;0.60;;;;;;;16.14;75.52;101138.47;5023922;28;20202;-74
2022/07/10 08:12:04;;;;;;;1.20;0.70;;;;;;;16.40;75.14;101134.75;5023310;28;20231;-73
2022/07/10 08:14:30;;;;;;;0.83;0.50;;;;;;;16.41;73.90;101143.50;5023342;28;20203;-73
2022/07/10 08:16:57;;;;;;;1.27;0.87;;;;;;;16.19;72.66;101138.28;5025566;28;20211;-73
2022/07/10 08:19:23;;;;;;;1.10;0.47;;;;;;;16.15;73.83;101136.72;5025184;28;20398;-73
2022/07/10 08:21:49;;;;;;;0.80;0.53;;;;;;;16.33;75.15;101143.84;5024840;28;20302;-73
2022/07/10 08:24:18;;;;;;;1.83;0.73;;;;;;;16.25;71.66;101149.44;5026659;28;20904;-73
2022/07/10 08:26:45;;;;;;;1.20;0.50;;;;;;;16.13;73.24;101136.78;5023819;28;20207;-73
2022/07/10 08:29:11;;;;;;;1.13;0.70;;;;;;;16.10;71.62;101142.16;5022862;28;20200;-74
2022/07/10 08:31:39;;;;;;;0.67;0.60;;;;;;;16.25;73.46;101145.91;5025473;28;20227;-73
2022/07/10 08:34:05;;;;;;;1.13;0.77;;;;;;;16.12;70.42;101150.00;5022901;28;20207;-73
2022/07/10 08:36:32;;;;;;;1.13;0.63;;;;;;;16.11;69.48;101157.00;5024781;28;20231;-75
2022/07/10 08:38:58;;;;;;;0.70;0.60;;;;;;;16.21;70.32;101154.88;5024087;28;20577;-73
2022/07/10 08:41:27;;;;;;;2.47;0.60;;;;;;;16.07;69.61;101152.81;5023159;28;20282;-72
2022/07/10 08:43:54;;;;;;;1.63;0.70;;;;;;;16.17;70.28;101150.66;5022651;28;20604;-74
2022/07/10 08:46:20;;;;;;;2.20;0.70;;;;;;;16.01;68.75;101155.69;5024693;28;20644;-73
2022/07/10 08:48:49;;;;;;;0.77;0.43;;;;;;;16.15;70.53;101155.13;5024458;28;20203;-73
2022/07/10 08:51:24;;;;;;;1.70;0.50;;;;;;;15.97;68.28;101151.44;5024747;28;20215;-72
2022/07/10 08:53:52;;;;;;;0.77;0.43;;;;;;;15.96;68.00;101144.50;5023705;28;20211;-74
2022/07/10 08:56:18;;;;;;;3.00;0.60;;;;;;;15.90;68.78;101154.34;5022141;28;20214;-73
2022/07/10 08:58:48;;;;;;;0.30;0.30;;;;;;;15.79;68.05;101159.16;5019447;28;20203;-72
2022/07/10 09:01:14;;;;;;;1.47;0.67;;;;;;;15.80;67.70;101152.16;5019747;28;20285;-74
2022/07/10 09:03:41;;;;;;;0.63;0.63;;;;;;;15.85;68.51;101158.09;5020914;28;20205;-73
2022/07/10 09:06:07;;;;;;;0.40;0.30;;;;;;;16.02;69.57;101160.91;5024967;28;20200;-73
2022/07/10 09:08:35;;;;;;;0.80;0.60;;;;;;;16.12;67.73;101152.63;5025177;28;20249;-72
2022/07/10 09:11:15;;;;;;;1.00;0.50;;;;;;;16.31;70.48;101142.19;5022577;28;20238;-73
2022/07/10 09:13:51;;;;;;;1.63;0.63;;;;;;;16.38;68.07;101149.75;5026779;28;20200;-75
2022/07/10 09:16:22;;;;;;;0.70;0.50;;;;;;;16.61;68.65;101151.41;5022656;28;20663;-73
2022/07/10 09:18:49;;;;;;;1.27;0.67;;;;;;;16.69;67.71;101142.31;5021610;28;20208;-73
2022/07/10 09:21:16;;;;;;;1.90;0.60;;;;;;;16.90;67.99;101137.94;5021003;28;20220;-73
2022/07/10 09:23:42;;;;;;;2.70;0.37;;;;;;;16.72;64.17;101150.09;5024926;28;20450;-73
2022/07/10 09:26:09;;;;;;;0.50;0.50;;;;;;;16.60;63.38;101151.47;5024675;28;20204;-72
2022/07/10 09:28:35;;;;;;;1.27;0.70;;;;;;;16.76;64.55;101144.63;5023963;28;20196;-73
2022/07/10 09:31:03;;;;;;;2.10;0.70;;;;;;;16.95;63.04;101139.44;5028784;28;20512;-72
2022/07/10 09:33:33;;;;;;;1.43;0.50;;;;;;;17.15;67.45;101130.66;5027138;28;20569;-75
2022/07/10 09:36:11;;;;;;;1.40;0.63;;;;;;;16.90;62.46;101141.41;5028907;28;20250;-75
2022/07/10 09:39:06;;;;;;;0.97;0.63;;;;;;;16.71;62.18;101148.38;5026030;28;20199;-75
2022/07/10 09:41:32;;;;;;;1.47;0.80;;;;;;;16.82;66.05;101144.34;5027256;28;20242;-74
2022/07/10 09:44:00;;;;;;;1.63;0.80;;;;;;;16.52;62.66;101145.69;5026451;28;20203;-76
2022/07/10 09:46:32;;;;;;;1.80;0.93;;;;;;;16.29;64.85;101150.16;5029869;28;20220;-76
2022/07/10 09:49:04;;;;;;;0.93;0.60;;;;;;;16.07;68.67;101152.81;5027885;28;20207;-75
2022/07/10 09:51:33;;;;;;;1.37;0.90;;;;;;;15.76;69.67;101158.41;5027467;28;20294;-76
2022/07/10 09:54:02;;;;;;;1.57;0.70;;;;;;;15.62;69.44;101165.06;5027169;28;20294;-75
2022/07/10 09:56:33;;;;;;;2.40;0.53;;;;;;;15.45;68.86;101159.59;5026704;28;20204;-74
2022/07/10 09:59:01;;;;;;;0.93;0.80;;;;;;;15.23;68.15;101163.03;5024589;28;20192;-76
2022/07/10 10:01:30;;;;;;;1.37;0.70;;;;;;;15.24;69.37;101164.72;5027557;28;20266;-76
2022/07/10 10:04:00;;;;;;;0.93;0.43;;;;;;;15.29;70.85;101161.94;5028352;28;20663;-75
2022/07/10 10:06:30;;;;;;;1.60;0.63;;;;;;;15.39;70.66;101158.06;5028605;28;20220;-74
2022/07/10 10:09:00;;;;;;;1.67;0.60;;;;;;;15.48;70.21;101160.31;5029960;28;20195;-76
2022/07/10 10:11:28;;;;;;;1.27;0.53;;;;;;;15.56;69.14;101159.19;5026259;28;20650;-76
2022/07/10 10:13:54;;;;;;;0.67;0.40;;;;;;;15.69;68.81;101155.16;5026498;28;20603;-76
2022/07/10 10:16:21;;;;;;;2.10;0.70;;;;;;;15.78;68.21;101165.34;5027961;28;20207;-75
2022/07/10 10:21:44;;;;;;;0.97;0.60;;;;;;;16.12;69.54;101156.09;4987084;28;20235;-75
2022/07/10 10:24:11;;;;;;;1.10;0.70;;;;;;;16.32;68.45;101162.31;5030798;28;20245;-75
2022/07/10 10:26:38;;;;;;;1.47;0.67;;;;;;;16.45;69.44;101159.09;5024283;28;20580;-76
2022/07/10 10:29:06;;;;;;;1.13;0.70;;;;;;;16.57;69.96;101156.84;5028351;28;20806;-76
2022/07/10 10:31:33;;;;;;;1.53;0.77;;;;;;;16.60;67.33;101154.97;5030859;28;20231;-76
2022/07/10 10:34:01;;;;;;;1.20;0.80;;;;;;;16.61;67.98;101148.78;5029667;28;20204;-76
2022/07/10 10:36:47;;;;;;;1.07;0.43;;;;;;;16.93;70.54;101150.97;5030228;28;20272;-76
2022/07/10 10:39:16;;;;;;;1.37;0.80;;;;;;;17.05;66.67;101154.84;5031203;28;20668;-76
2022/07/10 10:41:47;;;;;;;1.10;0.77;;;;;;;17.19;68.91;101144.53;5028398;28;20246;-75
2022/07/10 10:44:31;;;;;;;1.23;0.67;;;;;;;17.66;67.82;101143.22;5030892;28;20542;-75
2022/07/10 10:47:06;;;;;;;1.23;0.60;;;;;;;17.86;64.62;101153.72;5028416;28;20209;-76
2022/07/10 10:49:52;;;;;;;0.60;0.60;;;;;;;17.74;65.42;101149.84;5031738;28;20230;-75
2022/07/10 10:52:18;;;;;;;2.53;0.80;;;;;;;17.73;66.64;101142.88;5029890;28;20336;-75
2022/07/10 10:55:12;;;;;;;1.70;0.57;;;;;;;17.71;63.29;101151.78;5030699;28;20224;-75
2022/07/10 10:57:50;;;;;;;1.80;0.60;;;;;;;17.56;64.97;101146.31;5030492;28;20234;-76
2022/07/10 11:00:40;;;;;;;1.90;0.80;;;;;;;17.42;65.63;101152.22;5029643;28;20900;-75
2022/07/10 11:03:15;;;;;;;0.50;0.50;;;;;;;17.34;65.96;101157.00;5026810;28;20306;-75
2022/07/10 11:05:44;;;;;;;1.20;0.53;;;;;;;17.13;64.93;101169.38;5030532;28;20554;-75
2022/07/10 11:08:11;;;;;;;1.03;0.80;;;;;;;17.08;65.01;101170.50;5028577;28;20200;-75
2022/07/10 11:10:39;;;;;;;1.67;0.80;;;;;;;16.97;63.17;101176.22;5029976;28;20568;-75
2022/07/10 11:13:08;;;;;;;0.60;0.60;;;;;;;16.87;62.66;101165.25;5027219;28;20219;-76
2022/07/10 11:15:36;;;;;;;2.57;0.70;;;;;;;17.09;66.42;101157.25;5024317;28;20204;-74
2022/07/10 11:18:08;;;;;;;1.87;0.60;;;;;;;17.33;63.67;101155.28;5026765;28;20204;-76
2022/07/10 11:20:36;;;;;;;4.07;0.70;;;;;;;17.65;62.27;101166.09;5027743;28;20546;-74
2022/07/10 11:23:47;;;;;;;0.60;0.43;;;;;;;18.18;61.32;101153.91;5027306;28;20751;-75
2022/07/10 11:26:22;;;;;;;2.50;0.73;;;;;;;18.06;60.81;101154.53;5017735;28;20223;-76
2022/07/10 11:28:52;;;;;;;2.53;0.80;;;;;;;18.09;61.50;101159.66;5023334;28;20203;-76
2022/07/10 11:31:19;;;;;;;2.23;0.93;;;;;;;17.96;60.16;101167.34;5030289;28;20246;-76
2022/07/10 11:33:48;;;;;;;1.27;0.43;;;;;;;17.94;59.47;101170.03;5023365;28;20207;-76
2022/07/10 11:36:16;;;;;;;2.60;0.77;;;;;;;17.91;59.88;101169.34;5028367;28;20200;-76
2022/07/10 11:38:44;;;;;;;0.80;0.70;;;;;;;17.94;60.66;101159.47;5029291;28;20646;-76